Erato — SVBZ3 — position and weather

sailwx.info

Track history (hours):
 
Tides and Currents Weather Stations Pressure Air Temp Water Temp Dewpoint Dewpoint Depression Visibility Wind Speed Wind Dir Waves Ship Positions

Erato

Last reported at 2017-Nov-18 00:13 UTC. Time now 2017-Nov-18 01:07 UTC.
Position N 38°02' E 023°36'.

Length 115 m; draft 6.9 m.

Type: Tanker. MMSI: 236292000.

Date/timePositionNaut miles runAvg speedWind from/ knotsBaromVisibWave heightAir tempDewpointWater temp
2017-Nov-18 00:13N 38°02' E 023°36'0 0.0
2017-Nov-17 23:43N 38°02' E 023°36'0 0.0
2017-Nov-17 23:13N 38°02' E 023°36'0 0.0
2017-Nov-17 22:55N 38°02' E 023°36'0 0.0
2017-Nov-17 22:19N 38°02' E 023°36'0 0.0
2017-Nov-17 21:49N 38°02' E 023°36'0 0.0
2017-Nov-17 21:25N 38°02' E 023°36'0 0.0
2017-Nov-17 20:58N 38°02' E 023°36'0 0.0
2017-Nov-17 20:28N 38°02' E 023°36'0 0.0
2017-Nov-17 19:49N 38°02' E 023°36'0 0.0
2017-Nov-17 19:25N 38°02' E 023°36'0 0.0
2017-Nov-17 18:55N 38°02' E 023°36'0 0.0
2017-Nov-17 18:25N 38°02' E 023°36'0 0.0
2017-Nov-17 17:49N 38°02' E 023°36'0 0.0
2017-Nov-17 17:19N 38°02' E 023°36'0 0.0
2017-Nov-17 16:55N 38°02' E 023°36'0 0.0
2017-Nov-17 16:25N 38°02' E 023°36'0 0.0
2017-Nov-17 15:19N 38°02' E 023°36'0 0.0
2017-Nov-17 14:58N 38°02' E 023°36'0 0.0
2017-Nov-17 14:16N 38°02' E 023°36'0 0.0
2017-Nov-17 13:58N 38°02' E 023°36'0 0.0
2017-Nov-17 13:22N 38°02' E 023°36'1 1.6
2017-Nov-17 13:00N 38°02' E 023°35'0 0.3
2017-Nov-17 12:27N 38°02' E 023°35'0 0.0
2017-Nov-17 11:12N 38°02' E 023°35'0 0.0
2017-Nov-17 10:48N 38°02' E 023°35'0 0.0
2017-Nov-17 10:30N 38°02' E 023°35'0 0.0
2017-Nov-17 10:00N 38°02' E 023°35'0 0.0
2017-Nov-17 09:30N 38°02' E 023°35'0 0.1
2017-Nov-17 09:00N 38°02' E 023°35'0 0.0
2017-Nov-17 08:24N 38°02' E 023°35'0 0.1
2017-Nov-17 08:00N 38°02' E 023°35'0 0.0
2017-Nov-17 07:24N 38°02' E 023°35'0 0.1
2017-Nov-17 06:48N 38°02' E 023°35'0 0.0
2017-Nov-17 06:27N 38°02' E 023°35'0 0.1
2017-Nov-17 06:00N 38°02' E 023°35'0 0.1
2017-Nov-17 05:30N 38°02' E 023°35'0 0.0
2017-Nov-17 05:00N 38°02' E 023°35'0 0.0
2017-Nov-17 04:30N 38°02' E 023°35'0 0.0
2017-Nov-17 04:00N 38°02' E 023°35'0 0.0
2017-Nov-17 03:30N 38°02' E 023°35'0 0.0
2017-Nov-17 03:00N 38°02' E 023°35'0 0.0
2017-Nov-17 02:30N 38°02' E 023°35'0 0.0
2017-Nov-17 02:00N 38°02' E 023°35'0 0.0
2017-Nov-17 01:30N 38°02' E 023°35'0 0.0
2017-Nov-17 01:00N 38°02' E 023°35'0 0.0
2017-Nov-17 00:30N 38°02' E 023°35'0 0.0
2017-Nov-17 00:00N 38°02' E 023°35'0 0.0
2017-Nov-16 23:30N 38°02' E 023°35'0 0.0
2017-Nov-16 23:00N 38°02' E 023°35'0 0.2
2017-Nov-16 22:30N 38°02' E 023°35'0 0.1
2017-Nov-16 22:00N 38°02' E 023°35'0 0.1
2017-Nov-16 21:30N 38°02' E 023°35'0 0.3
2017-Nov-16 20:54N 38°02' E 023°35'0 0.1
2017-Nov-16 20:27N 38°02' E 023°35'0 0.1
2017-Nov-16 19:57N 38°02' E 023°35'2 4.3
2017-Nov-16 19:30N 38°01' E 023°33'5 9.6
2017-Nov-16 19:01N 38°00' E 023°27'4 7.1
2017-Nov-16 18:30N 37°57' E 023°24'4 7.9
2017-Nov-16 18:00N 37°53' E 023°23'510.3
2017-Nov-16 17:30N 37°51' E 023°29'1 2.4
2017-Nov-16 16:55N 37°51' E 023°31'0 0.1
2017-Nov-16 16:28N 37°51' E 023°31'0 0.0
2017-Nov-16 15:58N 37°51' E 023°31'0 0.1
2017-Nov-16 15:28N 37°51' E 023°31'0 0.1
2017-Nov-16 14:58N 37°51' E 023°31'0 0.1
2017-Nov-16 14:28N 37°51' E 023°31'0 0.0
2017-Nov-16 13:58N 37°51' E 023°31'0 0.0
2017-Nov-16 13:28N 37°51' E 023°31'0 0.0
2017-Nov-16 12:58N 37°51' E 023°31'0 0.0
2017-Nov-16 12:28N 37°51' E 023°31'0 0.1
2017-Nov-16 11:58N 37°51' E 023°31'0 0.1
2017-Nov-16 11:28N 37°51' E 023°31'0 0.1
2017-Nov-16 10:55N 37°51' E 023°31'1 1.7
2017-Nov-16 10:30N 37°51' E 023°31'511.0
2017-Nov-16 10:00N 37°56' E 023°35'3 5.4
2017-Nov-16 09:30N 37°58' E 023°33'4 3.7
2017-Nov-16 08:32N 38°02' E 023°32'0 0.1
2017-Nov-16 08:29N 38°02' E 023°32'0 0.3
2017-Nov-16 07:59N 38°02' E 023°32'0 0.2
2017-Nov-16 07:26N 38°02' E 023°32'0 0.0
2017-Nov-16 04:53N 38°02' E 023°32'0 0.0
2017-Nov-16 04:29N 38°02' E 023°32'0 0.0
2017-Nov-16 03:56N 38°02' E 023°32'0 0.0
2017-Nov-16 03:29N 38°02' E 023°32'0 0.0
2017-Nov-16 02:32N 38°02' E 023°32'0 0.0
2017-Nov-16 01:59N 38°02' E 023°32'0 0.0
2017-Nov-16 01:29N 38°02' E 023°32'0 0.0
2017-Nov-16 00:59N 38°02' E 023°32'0 0.0
2017-Nov-15 23:26N 38°02' E 023°32'0 0.0
2017-Nov-15 22:50N 38°02' E 023°32'0 0.0
2017-Nov-15 20:59N 38°02' E 023°32'0 0.0
2017-Nov-15 20:14N 38°02' E 023°32'0 0.0
2017-Nov-15 19:44N 38°02' E 023°32'0 0.0
2017-Nov-15 19:26N 38°02' E 023°32'0 0.0
2017-Nov-15 18:59N 38°02' E 023°32'0 0.3
2017-Nov-15 18:30N 38°02' E 023°31'4 8.5
2017-Nov-15 18:01N 38°00' E 023°26'4 7.0
2017-Nov-15 17:30N 37°57' E 023°24'4 8.7
2017-Nov-15 17:00N 37°53' E 023°24'510.6
2017-Nov-15 16:30N 37°52' E 023°31'0 0.4
2017-Nov-15 16:00N 37°52' E 023°31'0 0.0
2017-Nov-15 15:27N 37°52' E 023°31'0 0.1
2017-Nov-15 15:00N 37°52' E 023°31'0 0.0
2017-Nov-15 14:30N 37°52' E 023°31'0 0.0
2017-Nov-15 14:00N 37°52' E 023°31'0 0.0
2017-Nov-15 13:30N 37°52' E 023°31'0 0.1
2017-Nov-15 13:00N 37°52' E 023°31'0 0.2
2017-Nov-15 12:30N 37°52' E 023°31'1 1.3
2017-Nov-15 12:01N 37°52' E 023°32'4 7.1
2017-Nov-15 11:30N 37°55' E 023°34'0 0.1
2017-Nov-15 11:00N 37°55' E 023°34'0 0.0
2017-Nov-15 10:30N 37°55' E 023°34'0 0.0
2017-Nov-15 10:00N 37°55' E 023°34'1 1.1
2017-Nov-15 09:31N 37°55' E 023°33'5 9.9
2017-Nov-15 09:00N 37°51' E 023°31'0 0.5
2017-Nov-15 08:30N 37°50' E 023°31'0 0.0
2017-Nov-15 08:00N 37°50' E 023°31'0 0.0
2017-Nov-15 07:30N 37°50' E 023°31'0 0.0
2017-Nov-15 07:00N 37°50' E 023°31'0 0.1
2017-Nov-15 06:30N 37°50' E 023°31'1 1.5
2017-Nov-15 06:01N 37°51' E 023°31'5 9.9
2017-Nov-15 05:30N 37°55' E 023°34'4 8.2
2017-Nov-15 05:00N 37°59' E 023°33'2 3.3
2017-Nov-15 04:30N 38°01' E 023°33'2 2.6
2017-Nov-15 03:51N 38°01' E 023°35'0 0.0
2017-Nov-15 03:30N 38°01' E 023°35'0 0.0
2017-Nov-15 02:59N 38°01' E 023°35'0 0.0
2017-Nov-15 02:30N 38°01' E 023°35'0 0.0
2017-Nov-15 02:00N 38°01' E 023°35'0 0.0
2017-Nov-15 01:30N 38°01' E 023°35'0 0.0
2017-Nov-15 01:00N 38°01' E 023°35'0 0.0
2017-Nov-15 00:30N 38°01' E 023°35'0 0.0
2017-Nov-14 23:59N 38°01' E 023°35'0 0.0
2017-Nov-14 23:30N 38°01' E 023°35'0 0.0
2017-Nov-14 22:58N 38°01' E 023°35'0 0.0
2017-Nov-14 22:30N 38°01' E 023°35'0 0.0
2017-Nov-14 22:00N 38°01' E 023°35'0 0.0
2017-Nov-14 21:30N 38°01' E 023°35'0 0.0
2017-Nov-14 21:00N 38°01' E 023°35'0 0.0
2017-Nov-14 20:30N 38°01' E 023°35'0 0.0
2017-Nov-14 20:00N 38°01' E 023°35'1 1.2
2017-Nov-14 19:30N 38°02' E 023°35'0 0.5
2017-Nov-14 19:00N 38°02' E 023°36'0 0.0
2017-Nov-14 18:30N 38°02' E 023°36'0 0.0
2017-Nov-14 18:00N 38°02' E 023°36'0 0.0
2017-Nov-14 17:30N 38°02' E 023°36'0 0.0
2017-Nov-14 17:00N 38°02' E 023°36'0 0.0
2017-Nov-14 16:30N 38°02' E 023°36'0 0.0
2017-Nov-14 16:00N 38°02' E 023°36'0 0.0
2017-Nov-14 15:30N 38°02' E 023°36'0 0.0
2017-Nov-14 15:00N 38°02' E 023°36'0 0.0
2017-Nov-14 14:30N 38°02' E 023°36'0 0.0
2017-Nov-14 14:00N 38°02' E 023°36'0 0.1
2017-Nov-14 13:30N 38°02' E 023°36'1 1.6
2017-Nov-14 13:00N 38°01' E 023°35'3 5.3
2017-Nov-14 12:30N 38°02' E 023°31'0 0.1
2017-Nov-14 12:00N 38°02' E 023°31'0 0.1
2017-Nov-14 11:30N 38°02' E 023°31'0 0.1
2017-Nov-14 11:00N 38°02' E 023°31'0 0.0
2017-Nov-14 10:30N 38°02' E 023°31'0 0.0
2017-Nov-14 10:00N 38°02' E 023°31'0 0.0
2017-Nov-14 09:30N 38°02' E 023°31'0 0.1
2017-Nov-14 09:00N 38°02' E 023°31'0 0.0
2017-Nov-14 08:30N 38°01' E 023°31'0 0.1
2017-Nov-14 08:00N 38°02' E 023°31'0 0.1
2017-Nov-14 07:30N 38°01' E 023°31'0 0.0
2017-Nov-14 07:00N 38°01' E 023°31'0 0.0
2017-Nov-14 06:30N 38°01' E 023°31'0 0.0
2017-Nov-14 06:00N 38°01' E 023°31'0 0.0
2017-Nov-14 05:30N 38°01' E 023°31'0 0.1
2017-Nov-14 05:01N 38°01' E 023°31'0 0.0
2017-Nov-14 04:30N 38°01' E 023°31'0 0.0
2017-Nov-14 04:00N 38°01' E 023°31'0 0.0
2017-Nov-14 03:30N 38°01' E 023°31'0 0.0
2017-Nov-14 03:00N 38°01' E 023°31'0 0.1
2017-Nov-14 02:30N 38°01' E 023°31'0 0.0
2017-Nov-14 02:00N 38°01' E 023°31'0 0.0
2017-Nov-14 01:30N 38°01' E 023°31'0 0.0
2017-Nov-14 01:00N 38°01' E 023°31'0 0.0
2017-Nov-14 00:30N 38°01' E 023°31'0 0.0
2017-Nov-14 00:00N 38°01' E 023°31'0 0.0
2017-Nov-13 23:30N 38°02' E 023°31'0 0.0
2017-Nov-13 23:00N 38°01' E 023°31'0 0.0
2017-Nov-13 22:30N 38°01' E 023°31'0 0.0
2017-Nov-13 22:00N 38°01' E 023°31'3 0.2
2017-Nov-13 02:00N 38°02' E 023°36'0 0.0
2017-Nov-13 01:30N 38°02' E 023°36'0 0.0
2017-Nov-13 01:00N 38°02' E 023°36'0 0.0
2017-Nov-13 00:30N 38°02' E 023°36'0 0.0
2017-Nov-13 00:00N 38°02' E 023°36'0 0.0
2017-Nov-12 23:30N 38°02' E 023°36'0 0.0
2017-Nov-12 23:00N 38°02' E 023°36'0 0.0
2017-Nov-12 22:30N 38°02' E 023°36'0 0.0
2017-Nov-12 22:00N 38°02' E 023°36'0 0.0
2017-Nov-12 21:30N 38°02' E 023°36'0 0.0
2017-Nov-12 21:00N 38°02' E 023°36'0 0.0
2017-Nov-12 20:30N 38°02' E 023°36'0 0.0
2017-Nov-12 20:00N 38°02' E 023°36'0 0.0
2017-Nov-12 19:30N 38°02' E 023°36'0 0.0
2017-Nov-12 19:00N 38°02' E 023°36'0 0.0
2017-Nov-12 18:30N 38°02' E 023°36'0 0.0
2017-Nov-12 18:00N 38°02' E 023°36'0 0.0
2017-Nov-12 17:30N 38°02' E 023°36'0 0.0
2017-Nov-12 17:00N 38°02' E 023°36'0 0.0
2017-Nov-12 16:30N 38°02' E 023°36'0 0.0
2017-Nov-12 16:00N 38°02' E 023°36'0 0.0
2017-Nov-12 15:30N 38°02' E 023°36'0 0.0
2017-Nov-12 15:00N 38°02' E 023°36'0 0.0
2017-Nov-12 14:31N 38°02' E 023°36'0 0.0
2017-Nov-12 14:00N 38°02' E 023°36'0 0.0
2017-Nov-12 13:30N 38°02' E 023°36'0 0.0
2017-Nov-12 13:00N 38°02' E 023°36'0 0.0
2017-Nov-12 12:30N 38°02' E 023°36'0 0.0
2017-Nov-12 12:00N 38°02' E 023°36'0 0.5
2017-Nov-12 11:29N 38°02' E 023°35'0 0.7
2017-Nov-12 11:00N 38°02' E 023°35'0 0.0
2017-Nov-12 10:31N 38°02' E 023°35'0 0.0
2017-Nov-12 10:00N 38°02' E 023°35'0 0.0
2017-Nov-12 09:31N 38°02' E 023°35'0 0.0
2017-Nov-12 09:00N 38°02' E 023°35'0 0.0
2017-Nov-12 08:30N 38°02' E 023°35'0 0.0
2017-Nov-12 08:00N 38°02' E 023°35'0 0.3
2017-Nov-12 07:30N 38°02' E 023°35'4 8.6
2017-Nov-12 07:00N 37°57' E 023°33'5 9.3
2017-Nov-12 06:30N 37°54' E 023°37'611.8
2017-Nov-12 06:00N 37°49' E 023°40'711.9
2017-Nov-12 05:26N 37°43' E 023°44'511.5
2017-Nov-12 05:00N 37°38' E 023°45'1411.9
2017-Nov-12 03:51N 37°24' E 023°44'711.8
2017-Nov-12 03:17N 37°17' E 023°43'411.5
2017-Nov-12 02:56N 37°13' E 023°43'  
2017-Nov-09 09:01N 37°39' E 023°43'010.0
2017-Nov-09 09:00N 37°39' E 023°43'510.6
2017-Nov-09 08:30N 37°44' E 023°40'510.9
2017-Nov-09 08:00N 37°49' E 023°37'510.9
2017-Nov-09 07:30N 37°54' E 023°35'3 6.3
2017-Nov-09 07:00N 37°57' E 023°33'4 7.4
2017-Nov-09 06:30N 38°01' E 023°32'1 1.2
2017-Nov-09 06:00N 38°01' E 023°31'1 2.3
2017-Nov-09 05:30N 38°02' E 023°31'0 0.2
2017-Nov-09 04:58N 38°02' E 023°31'0 0.0
2017-Nov-09 04:25N 38°02' E 023°31'0 0.0
2017-Nov-09 03:58N 38°02' E 023°31'0 0.0
2017-Nov-09 03:28N 38°02' E 023°31'0 0.0
2017-Nov-09 02:58N 38°02' E 023°31'0 0.0
2017-Nov-09 02:25N 38°02' E 023°31'0 0.0
2017-Nov-09 01:58N 38°02' E 023°31'0 0.0
2017-Nov-09 01:28N 38°02' E 023°31'0 0.0
2017-Nov-09 00:58N 38°02' E 023°31'0 0.0
2017-Nov-09 00:28N 38°02' E 023°31'0 0.0
2017-Nov-08 23:58N 38°02' E 023°31'0 0.0
2017-Nov-08 23:28N 38°02' E 023°31'0 0.0
2017-Nov-08 22:55N 38°02' E 023°31'0 0.0
2017-Nov-08 22:28N 38°02' E 023°31'0 0.0
2017-Nov-08 21:58N 38°02' E 023°31'0 0.0
2017-Nov-08 21:28N 38°02' E 023°31'0 0.0
2017-Nov-08 20:58N 38°02' E 023°31'0 0.0
2017-Nov-08 20:28N 38°02' E 023°31'0 0.0
2017-Nov-08 19:58N 38°02' E 023°31'0 0.0
2017-Nov-08 19:28N 38°02' E 023°31'0 0.0
2017-Nov-08 18:58N 38°02' E 023°31'0 0.0
2017-Nov-08 18:28N 38°02' E 023°31'0 0.0
2017-Nov-08 17:58N 38°02' E 023°31'0 0.0
2017-Nov-08 17:28N 38°02' E 023°31'0 0.0
2017-Nov-08 16:58N 38°02' E 023°31'0 0.0
2017-Nov-08 16:28N 38°02' E 023°31'0 0.0
2017-Nov-08 15:58N 38°02' E 023°31'0 0.0
2017-Nov-08 15:28N 38°02' E 023°31'0 0.0
2017-Nov-08 14:55N 38°02' E 023°31'0 0.0
2017-Nov-08 14:28N 38°02' E 023°31'0 0.0
2017-Nov-08 13:58N 38°02' E 023°31'0 0.0
2017-Nov-08 13:25N 38°02' E 023°31'0 1.0
2017-Nov-08 12:58N 38°02' E 023°31'0 0.9
2017-Nov-08 12:28N 38°01' E 023°31'0 0.1
2017-Nov-08 11:58N 38°01' E 023°31'0 0.1
2017-Nov-08 11:29N 38°01' E 023°31'0 0.1
2017-Nov-08 10:58N 38°01' E 023°31'0 0.1
2017-Nov-08 10:28N 38°01' E 023°31'0 0.1
2017-Nov-08 09:58N 38°01' E 023°31'1 3.1
2017-Nov-08 09:31N 38°01' E 023°33'2 3.3
2017-Nov-08 08:58N 38°02' E 023°35'0 0.0
2017-Nov-08 08:28N 38°02' E 023°35'0 0.0
2017-Nov-08 07:55N 38°02' E 023°35'2 4.6
2017-Nov-08 07:30N 38°01' E 023°33'1 1.2
2017-Nov-08 07:00N 38°01' E 023°32'0 0.0
2017-Nov-08 06:27N 38°01' E 023°32'0 0.0
2017-Nov-08 05:58N 38°01' E 023°32'0 0.0
2017-Nov-08 05:27N 38°01' E 023°32'0 0.0
2017-Nov-08 04:57N 38°01' E 023°32'0 0.0
2017-Nov-08 04:30N 38°01' E 023°32'0 0.1
2017-Nov-08 04:00N 38°01' E 023°32'0 0.0
2017-Nov-08 03:28N 38°01' E 023°32'0 0.0
2017-Nov-08 02:57N 38°01' E 023°32'0 0.1
2017-Nov-08 02:30N 38°01' E 023°32'0 0.0
2017-Nov-08 01:58N 38°01' E 023°32'0 0.0
2017-Nov-08 01:27N 38°01' E 023°32'0 0.0
2017-Nov-08 00:57N 38°01' E 023°32'0 0.0
2017-Nov-08 00:27N 38°01' E 023°32'  
Track history (hours):
 
Tides and Currents Weather Stations Pressure Air Temp Water Temp Dewpoint Dewpoint Depression Visibility Wind Speed Wind Dir Waves Ship Positions

Erato

Last reported at 2017-Nov-18 00:13 UTC. Time now 2017-Nov-18 01:07 UTC.
Position N 38°02' E 023°36'.

Length 115 m; draft 6.9 m.

Type: Tanker. MMSI: 236292000.

Date/timePositionNaut miles runAvg speedWind from/ knotsBaromVisibWave heightAir tempDewpointWater temp
2017-Nov-18 00:13N 38°02' E 023°36'0 0.0
2017-Nov-17 23:43N 38°02' E 023°36'0 0.0
2017-Nov-17 23:13N 38°02' E 023°36'0 0.0
2017-Nov-17 22:55N 38°02' E 023°36'0 0.0
2017-Nov-17 22:19N 38°02' E 023°36'0 0.0
2017-Nov-17 21:49N 38°02' E 023°36'0 0.0
2017-Nov-17 21:25N 38°02' E 023°36'0 0.0
2017-Nov-17 20:58N 38°02' E 023°36'0 0.0
2017-Nov-17 20:28N 38°02' E 023°36'0 0.0
2017-Nov-17 19:49N 38°02' E 023°36'0 0.0
2017-Nov-17 19:25N 38°02' E 023°36'0 0.0
2017-Nov-17 18:55N 38°02' E 023°36'0 0.0
2017-Nov-17 18:25N 38°02' E 023°36'0 0.0
2017-Nov-17 17:49N 38°02' E 023°36'0 0.0
2017-Nov-17 17:19N 38°02' E 023°36'0 0.0
2017-Nov-17 16:55N 38°02' E 023°36'0 0.0
2017-Nov-17 16:25N 38°02' E 023°36'0 0.0
2017-Nov-17 15:19N 38°02' E 023°36'0 0.0
2017-Nov-17 14:58N 38°02' E 023°36'0 0.0
2017-Nov-17 14:16N 38°02' E 023°36'0 0.0
2017-Nov-17 13:58N 38°02' E 023°36'0 0.0
2017-Nov-17 13:22N 38°02' E 023°36'1 1.6
2017-Nov-17 13:00N 38°02' E 023°35'0 0.3
2017-Nov-17 12:27N 38°02' E 023°35'0 0.0
2017-Nov-17 11:12N 38°02' E 023°35'0 0.0
2017-Nov-17 10:48N 38°02' E 023°35'0 0.0
2017-Nov-17 10:30N 38°02' E 023°35'0 0.0
2017-Nov-17 10:00N 38°02' E 023°35'0 0.0
2017-Nov-17 09:30N 38°02' E 023°35'0 0.1
2017-Nov-17 09:00N 38°02' E 023°35'0 0.0
2017-Nov-17 08:24N 38°02' E 023°35'0 0.1
2017-Nov-17 08:00N 38°02' E 023°35'0 0.0
2017-Nov-17 07:24N 38°02' E 023°35'0 0.1
2017-Nov-17 06:48N 38°02' E 023°35'0 0.0
2017-Nov-17 06:27N 38°02' E 023°35'0 0.1
2017-Nov-17 06:00N 38°02' E 023°35'0 0.1
2017-Nov-17 05:30N 38°02' E 023°35'0 0.0
2017-Nov-17 05:00N 38°02' E 023°35'0 0.0
2017-Nov-17 04:30N 38°02' E 023°35'0 0.0
2017-Nov-17 04:00N 38°02' E 023°35'0 0.0
2017-Nov-17 03:30N 38°02' E 023°35'0 0.0
2017-Nov-17 03:00N 38°02' E 023°35'0 0.0
2017-Nov-17 02:30N 38°02' E 023°35'0 0.0
2017-Nov-17 02:00N 38°02' E 023°35'0 0.0
2017-Nov-17 01:30N 38°02' E 023°35'0 0.0
2017-Nov-17 01:00N 38°02' E 023°35'0 0.0
2017-Nov-17 00:30N 38°02' E 023°35'0 0.0
2017-Nov-17 00:00N 38°02' E 023°35'0 0.0
2017-Nov-16 23:30N 38°02' E 023°35'0 0.0
2017-Nov-16 23:00N 38°02' E 023°35'0 0.2
2017-Nov-16 22:30N 38°02' E 023°35'0 0.1
2017-Nov-16 22:00N 38°02' E 023°35'0 0.1
2017-Nov-16 21:30N 38°02' E 023°35'0 0.3
2017-Nov-16 20:54N 38°02' E 023°35'0 0.1
2017-Nov-16 20:27N 38°02' E 023°35'0 0.1
2017-Nov-16 19:57N 38°02' E 023°35'2 4.3
2017-Nov-16 19:30N 38°01' E 023°33'5 9.6
2017-Nov-16 19:01N 38°00' E 023°27'4 7.1
2017-Nov-16 18:30N 37°57' E 023°24'4 7.9
2017-Nov-16 18:00N 37°53' E 023°23'510.3
2017-Nov-16 17:30N 37°51' E 023°29'1 2.4
2017-Nov-16 16:55N 37°51' E 023°31'0 0.1
2017-Nov-16 16:28N 37°51' E 023°31'0 0.0
2017-Nov-16 15:58N 37°51' E 023°31'0 0.1
2017-Nov-16 15:28N 37°51' E 023°31'0 0.1
2017-Nov-16 14:58N 37°51' E 023°31'0 0.1
2017-Nov-16 14:28N 37°51' E 023°31'0 0.0
2017-Nov-16 13:58N 37°51' E 023°31'0 0.0
2017-Nov-16 13:28N 37°51' E 023°31'0 0.0
2017-Nov-16 12:58N 37°51' E 023°31'0 0.0
2017-Nov-16 12:28N 37°51' E 023°31'0 0.1
2017-Nov-16 11:58N 37°51' E 023°31'0 0.1
2017-Nov-16 11:28N 37°51' E 023°31'0 0.1
2017-Nov-16 10:55N 37°51' E 023°31'1 1.7
2017-Nov-16 10:30N 37°51' E 023°31'511.0
2017-Nov-16 10:00N 37°56' E 023°35'3 5.4
2017-Nov-16 09:30N 37°58' E 023°33'4 3.7
2017-Nov-16 08:32N 38°02' E 023°32'0 0.1
2017-Nov-16 08:29N 38°02' E 023°32'0 0.3
2017-Nov-16 07:59N 38°02' E 023°32'0 0.2
2017-Nov-16 07:26N 38°02' E 023°32'0 0.0
2017-Nov-16 04:53N 38°02' E 023°32'0 0.0
2017-Nov-16 04:29N 38°02' E 023°32'0 0.0
2017-Nov-16 03:56N 38°02' E 023°32'0 0.0
2017-Nov-16 03:29N 38°02' E 023°32'0 0.0
2017-Nov-16 02:32N 38°02' E 023°32'0 0.0
2017-Nov-16 01:59N 38°02' E 023°32'0 0.0
2017-Nov-16 01:29N 38°02' E 023°32'0 0.0
2017-Nov-16 00:59N 38°02' E 023°32'0 0.0
2017-Nov-15 23:26N 38°02' E 023°32'0 0.0
2017-Nov-15 22:50N 38°02' E 023°32'0 0.0
2017-Nov-15 20:59N 38°02' E 023°32'0 0.0
2017-Nov-15 20:14N 38°02' E 023°32'0 0.0
2017-Nov-15 19:44N 38°02' E 023°32'0 0.0
2017-Nov-15 19:26N 38°02' E 023°32'0 0.0
2017-Nov-15 18:59N 38°02' E 023°32'0 0.3
2017-Nov-15 18:30N 38°02' E 023°31'4 8.5
2017-Nov-15 18:01N 38°00' E 023°26'4 7.0
2017-Nov-15 17:30N 37°57' E 023°24'4 8.7
2017-Nov-15 17:00N 37°53' E 023°24'510.6
2017-Nov-15 16:30N 37°52' E 023°31'0 0.4
2017-Nov-15 16:00N 37°52' E 023°31'0 0.0
2017-Nov-15 15:27N 37°52' E 023°31'0 0.1
2017-Nov-15 15:00N 37°52' E 023°31'0 0.0
2017-Nov-15 14:30N 37°52' E 023°31'0 0.0
2017-Nov-15 14:00N 37°52' E 023°31'0 0.0
2017-Nov-15 13:30N 37°52' E 023°31'0 0.1
2017-Nov-15 13:00N 37°52' E 023°31'0 0.2
2017-Nov-15 12:30N 37°52' E 023°31'1 1.3
2017-Nov-15 12:01N 37°52' E 023°32'4 7.1
2017-Nov-15 11:30N 37°55' E 023°34'0 0.1
2017-Nov-15 11:00N 37°55' E 023°34'0 0.0
2017-Nov-15 10:30N 37°55' E 023°34'0 0.0
2017-Nov-15 10:00N 37°55' E 023°34'1 1.1
2017-Nov-15 09:31N 37°55' E 023°33'5 9.9
2017-Nov-15 09:00N 37°51' E 023°31'0 0.5
2017-Nov-15 08:30N 37°50' E 023°31'0 0.0
2017-Nov-15 08:00N 37°50' E 023°31'0 0.0
2017-Nov-15 07:30N 37°50' E 023°31'0 0.0
2017-Nov-15 07:00N 37°50' E 023°31'0 0.1
2017-Nov-15 06:30N 37°50' E 023°31'1 1.5
2017-Nov-15 06:01N 37°51' E 023°31'5 9.9
2017-Nov-15 05:30N 37°55' E 023°34'4 8.2
2017-Nov-15 05:00N 37°59' E 023°33'2 3.3
2017-Nov-15 04:30N 38°01' E 023°33'2 2.6
2017-Nov-15 03:51N 38°01' E 023°35'0 0.0
2017-Nov-15 03:30N 38°01' E 023°35'0 0.0
2017-Nov-15 02:59N 38°01' E 023°35'0 0.0
2017-Nov-15 02:30N 38°01' E 023°35'0 0.0
2017-Nov-15 02:00N 38°01' E 023°35'0 0.0
2017-Nov-15 01:30N 38°01' E 023°35'0 0.0
2017-Nov-15 01:00N 38°01' E 023°35'0 0.0
2017-Nov-15 00:30N 38°01' E 023°35'0 0.0
2017-Nov-14 23:59N 38°01' E 023°35'0 0.0
2017-Nov-14 23:30N 38°01' E 023°35'0 0.0
2017-Nov-14 22:58N 38°01' E 023°35'0 0.0
2017-Nov-14 22:30N 38°01' E 023°35'0 0.0
2017-Nov-14 22:00N 38°01' E 023°35'0 0.0
2017-Nov-14 21:30N 38°01' E 023°35'0 0.0
2017-Nov-14 21:00N 38°01' E 023°35'0 0.0
2017-Nov-14 20:30N 38°01' E 023°35'0 0.0
2017-Nov-14 20:00N 38°01' E 023°35'1 1.2
2017-Nov-14 19:30N 38°02' E 023°35'0 0.5
2017-Nov-14 19:00N 38°02' E 023°36'0 0.0
2017-Nov-14 18:30N 38°02' E 023°36'0 0.0
2017-Nov-14 18:00N 38°02' E 023°36'0 0.0
2017-Nov-14 17:30N 38°02' E 023°36'0 0.0
2017-Nov-14 17:00N 38°02' E 023°36'0 0.0
2017-Nov-14 16:30N 38°02' E 023°36'0 0.0
2017-Nov-14 16:00N 38°02' E 023°36'0 0.0
2017-Nov-14 15:30N 38°02' E 023°36'0 0.0
2017-Nov-14 15:00N 38°02' E 023°36'0 0.0
2017-Nov-14 14:30N 38°02' E 023°36'0 0.0
2017-Nov-14 14:00N 38°02' E 023°36'0 0.1
2017-Nov-14 13:30N 38°02' E 023°36'1 1.6
2017-Nov-14 13:00N 38°01' E 023°35'3 5.3
2017-Nov-14 12:30N 38°02' E 023°31'0 0.1
2017-Nov-14 12:00N 38°02' E 023°31'0 0.1
2017-Nov-14 11:30N 38°02' E 023°31'0 0.1
2017-Nov-14 11:00N 38°02' E 023°31'0 0.0
2017-Nov-14 10:30N 38°02' E 023°31'0 0.0
2017-Nov-14 10:00N 38°02' E 023°31'0 0.0
2017-Nov-14 09:30N 38°02' E 023°31'0 0.1
2017-Nov-14 09:00N 38°02' E 023°31'0 0.0
2017-Nov-14 08:30N 38°01' E 023°31'0 0.1
2017-Nov-14 08:00N 38°02' E 023°31'0 0.1
2017-Nov-14 07:30N 38°01' E 023°31'0 0.0
2017-Nov-14 07:00N 38°01' E 023°31'0 0.0
2017-Nov-14 06:30N 38°01' E 023°31'0 0.0
2017-Nov-14 06:00N 38°01' E 023°31'0 0.0
2017-Nov-14 05:30N 38°01' E 023°31'0 0.1
2017-Nov-14 05:01N 38°01' E 023°31'0 0.0
2017-Nov-14 04:30N 38°01' E 023°31'0 0.0
2017-Nov-14 04:00N 38°01' E 023°31'0 0.0
2017-Nov-14 03:30N 38°01' E 023°31'0 0.0
2017-Nov-14 03:00N 38°01' E 023°31'0 0.1
2017-Nov-14 02:30N 38°01' E 023°31'0 0.0
2017-Nov-14 02:00N 38°01' E 023°31'0 0.0
2017-Nov-14 01:30N 38°01' E 023°31'0 0.0
2017-Nov-14 01:00N 38°01' E 023°31'0 0.0
2017-Nov-14 00:30N 38°01' E 023°31'0 0.0
2017-Nov-14 00:00N 38°01' E 023°31'0 0.0
2017-Nov-13 23:30N 38°02' E 023°31'0 0.0
2017-Nov-13 23:00N 38°01' E 023°31'0 0.0
2017-Nov-13 22:30N 38°01' E 023°31'0 0.0
2017-Nov-13 22:00N 38°01' E 023°31'3 0.2
2017-Nov-13 02:00N 38°02' E 023°36'0 0.0
2017-Nov-13 01:30N 38°02' E 023°36'0 0.0
2017-Nov-13 01:00N 38°02' E 023°36'0 0.0
2017-Nov-13 00:30N 38°02' E 023°36'0 0.0
2017-Nov-13 00:00N 38°02' E 023°36'0 0.0
2017-Nov-12 23:30N 38°02' E 023°36'0 0.0
2017-Nov-12 23:00N 38°02' E 023°36'0 0.0
2017-Nov-12 22:30N 38°02' E 023°36'0 0.0
2017-Nov-12 22:00N 38°02' E 023°36'0 0.0
2017-Nov-12 21:30N 38°02' E 023°36'0 0.0
2017-Nov-12 21:00N 38°02' E 023°36'0 0.0
2017-Nov-12 20:30N 38°02' E 023°36'0 0.0
2017-Nov-12 20:00N 38°02' E 023°36'0 0.0
2017-Nov-12 19:30N 38°02' E 023°36'0 0.0
2017-Nov-12 19:00N 38°02' E 023°36'0 0.0
2017-Nov-12 18:30N 38°02' E 023°36'0 0.0
2017-Nov-12 18:00N 38°02' E 023°36'0 0.0
2017-Nov-12 17:30N 38°02' E 023°36'0 0.0
2017-Nov-12 17:00N 38°02' E 023°36'0 0.0
2017-Nov-12 16:30N 38°02' E 023°36'0 0.0
2017-Nov-12 16:00N 38°02' E 023°36'0 0.0
2017-Nov-12 15:30N 38°02' E 023°36'0 0.0
2017-Nov-12 15:00N 38°02' E 023°36'0 0.0
2017-Nov-12 14:31N 38°02' E 023°36'0 0.0
2017-Nov-12 14:00N 38°02' E 023°36'0 0.0
2017-Nov-12 13:30N 38°02' E 023°36'0 0.0
2017-Nov-12 13:00N 38°02' E 023°36'0 0.0
2017-Nov-12 12:30N 38°02' E 023°36'0 0.0
2017-Nov-12 12:00N 38°02' E 023°36'0 0.5
2017-Nov-12 11:29N 38°02' E 023°35'0 0.7
2017-Nov-12 11:00N 38°02' E 023°35'0 0.0
2017-Nov-12 10:31N 38°02' E 023°35'0 0.0
2017-Nov-12 10:00N 38°02' E 023°35'0 0.0
2017-Nov-12 09:31N 38°02' E 023°35'0 0.0
2017-Nov-12 09:00N 38°02' E 023°35'0 0.0
2017-Nov-12 08:30N 38°02' E 023°35'0 0.0
2017-Nov-12 08:00N 38°02' E 023°35'0 0.3
2017-Nov-12 07:30N 38°02' E 023°35'4 8.6
2017-Nov-12 07:00N 37°57' E 023°33'5 9.3
2017-Nov-12 06:30N 37°54' E 023°37'611.8
2017-Nov-12 06:00N 37°49' E 023°40'711.9
2017-Nov-12 05:26N 37°43' E 023°44'511.5
2017-Nov-12 05:00N 37°38' E 023°45'1411.9
2017-Nov-12 03:51N 37°24' E 023°44'711.8
2017-Nov-12 03:17N 37°17' E 023°43'411.5
2017-Nov-12 02:56N 37°13' E 023°43'  
2017-Nov-09 09:01N 37°39' E 023°43'010.0
2017-Nov-09 09:00N 37°39' E 023°43'510.6
2017-Nov-09 08:30N 37°44' E 023°40'510.9
2017-Nov-09 08:00N 37°49' E 023°37'510.9
2017-Nov-09 07:30N 37°54' E 023°35'3 6.3
2017-Nov-09 07:00N 37°57' E 023°33'4 7.4
2017-Nov-09 06:30N 38°01' E 023°32'1 1.2
2017-Nov-09 06:00N 38°01' E 023°31'1 2.3
2017-Nov-09 05:30N 38°02' E 023°31'0 0.2
2017-Nov-09 04:58N 38°02' E 023°31'0 0.0
2017-Nov-09 04:25N 38°02' E 023°31'0 0.0
2017-Nov-09 03:58N 38°02' E 023°31'0 0.0
2017-Nov-09 03:28N 38°02' E 023°31'0 0.0
2017-Nov-09 02:58N 38°02' E 023°31'0 0.0
2017-Nov-09 02:25N 38°02' E 023°31'0 0.0
2017-Nov-09 01:58N 38°02' E 023°31'0 0.0
2017-Nov-09 01:28N 38°02' E 023°31'0 0.0
2017-Nov-09 00:58N 38°02' E 023°31'0 0.0
2017-Nov-09 00:28N 38°02' E 023°31'0 0.0
2017-Nov-08 23:58N 38°02' E 023°31'0 0.0
2017-Nov-08 23:28N 38°02' E 023°31'0 0.0
2017-Nov-08 22:55N 38°02' E 023°31'0 0.0
2017-Nov-08 22:28N 38°02' E 023°31'0 0.0
2017-Nov-08 21:58N 38°02' E 023°31'0 0.0
2017-Nov-08 21:28N 38°02' E 023°31'0 0.0
2017-Nov-08 20:58N 38°02' E 023°31'0 0.0
2017-Nov-08 20:28N 38°02' E 023°31'0 0.0
2017-Nov-08 19:58N 38°02' E 023°31'0 0.0
2017-Nov-08 19:28N 38°02' E 023°31'0 0.0
2017-Nov-08 18:58N 38°02' E 023°31'0 0.0
2017-Nov-08 18:28N 38°02' E 023°31'0 0.0
2017-Nov-08 17:58N 38°02' E 023°31'0 0.0
2017-Nov-08 17:28N 38°02' E 023°31'0 0.0
2017-Nov-08 16:58N 38°02' E 023°31'0 0.0
2017-Nov-08 16:28N 38°02' E 023°31'0 0.0
2017-Nov-08 15:58N 38°02' E 023°31'0 0.0
2017-Nov-08 15:28N 38°02' E 023°31'0 0.0
2017-Nov-08 14:55N 38°02' E 023°31'0 0.0
2017-Nov-08 14:28N 38°02' E 023°31'0 0.0
2017-Nov-08 13:58N 38°02' E 023°31'0 0.0
2017-Nov-08 13:25N 38°02' E 023°31'0 1.0
2017-Nov-08 12:58N 38°02' E 023°31'0 0.9
2017-Nov-08 12:28N 38°01' E 023°31'0 0.1
2017-Nov-08 11:58N 38°01' E 023°31'0 0.1
2017-Nov-08 11:29N 38°01' E 023°31'0 0.1
2017-Nov-08 10:58N 38°01' E 023°31'0 0.1
2017-Nov-08 10:28N 38°01' E 023°31'0 0.1
2017-Nov-08 09:58N 38°01' E 023°31'1 3.1
2017-Nov-08 09:31N 38°01' E 023°33'2 3.3
2017-Nov-08 08:58N 38°02' E 023°35'0 0.0
2017-Nov-08 08:28N 38°02' E 023°35'0 0.0
2017-Nov-08 07:55N 38°02' E 023°35'2 4.6
2017-Nov-08 07:30N 38°01' E 023°33'1 1.2
2017-Nov-08 07:00N 38°01' E 023°32'0 0.0
2017-Nov-08 06:27N 38°01' E 023°32'0 0.0
2017-Nov-08 05:58N 38°01' E 023°32'0 0.0
2017-Nov-08 05:27N 38°01' E 023°32'0 0.0
2017-Nov-08 04:57N 38°01' E 023°32'0 0.0
2017-Nov-08 04:30N 38°01' E 023°32'0 0.1
2017-Nov-08 04:00N 38°01' E 023°32'0 0.0
2017-Nov-08 03:28N 38°01' E 023°32'0 0.0
2017-Nov-08 02:57N 38°01' E 023°32'0 0.1
2017-Nov-08 02:30N 38°01' E 023°32'0 0.0
2017-Nov-08 01:58N 38°01' E 023°32'0 0.0
2017-Nov-08 01:27N 38°01' E 023°32'0 0.0
2017-Nov-08 00:57N 38°01' E 023°32'0 0.0
2017-Nov-08 00:27N 38°01' E 023°32'  

Dump ship's entire track history